sensor_id;sensor_type;location;lat;lon;timestamp;P1;durP1;ratioP1;P2;durP2;ratioP2
38248;SDS011;24045;51.138;17.126;2023-04-15T00:04:35;16.00;;;11.00;;
38248;SDS011;24045;51.138;17.126;2023-04-15T00:19:38;16.10;;;11.00;;
38248;SDS011;24045;51.138;17.126;2023-04-15T00:34:42;15.00;;;10.90;;
38248;SDS011;24045;51.138;17.126;2023-04-15T01:04:48;14.80;;;11.50;;
38248;SDS011;24045;51.138;17.126;2023-04-15T01:19:51;17.00;;;11.60;;
38248;SDS011;24045;51.138;17.126;2023-04-15T01:34:54;15.10;;;10.90;;
38248;SDS011;24045;51.138;17.126;2023-04-15T01:49:56;16.20;;;10.80;;
38248;SDS011;24045;51.138;17.126;2023-04-15T02:04:59;16.90;;;11.40;;
38248;SDS011;24045;51.138;17.126;2023-04-15T02:35:07;18.80;;;12.80;;
38248;SDS011;24045;51.138;17.126;2023-04-15T02:50:11;18.30;;;11.80;;
38248;SDS011;24045;51.138;17.126;2023-04-15T03:05:15;16.60;;;12.70;;
38248;SDS011;24045;51.138;17.126;2023-04-15T03:20:17;16.40;;;11.60;;
38248;SDS011;24045;51.138;17.126;2023-04-15T03:35:21;16.40;;;10.40;;
38248;SDS011;24045;51.138;17.126;2023-04-15T03:50:24;17.10;;;10.30;;
38248;SDS011;24045;51.138;17.126;2023-04-15T04:05:27;14.20;;;9.80;;
38248;SDS011;24045;51.138;17.126;2023-04-15T04:35:33;7.40;;;3.10;;
38248;SDS011;24045;51.138;17.126;2023-04-15T04:50:39;4.20;;;2.20;;
38248;SDS011;24045;51.138;17.126;2023-04-15T05:20:49;5.50;;;1.90;;
38248;SDS011;24045;51.138;17.126;2023-04-15T05:35:52;4.40;;;2.50;;
38248;SDS011;24045;51.138;17.126;2023-04-15T05:50:58;5.10;;;2.40;;
38248;SDS011;24045;51.138;17.126;2023-04-15T06:06:00;5.80;;;2.60;;
38248;SDS011;24045;51.138;17.126;2023-04-15T06:21:04;5.20;;;2.50;;
38248;SDS011;24045;51.138;17.126;2023-04-15T06:36:07;4.70;;;2.30;;
38248;SDS011;24045;51.138;17.126;2023-04-15T06:51:09;8.20;;;3.80;;
38248;SDS011;24045;51.138;17.126;2023-04-15T07:06:13;4.10;;;2.30;;
38248;SDS011;24045;51.138;17.126;2023-04-15T07:21:16;4.00;;;2.00;;
38248;SDS011;24045;51.138;17.126;2023-04-15T07:36:19;7.20;;;2.70;;
38248;SDS011;24045;51.138;17.126;2023-04-15T07:51:22;2.90;;;1.50;;
38248;SDS011;24045;51.138;17.126;2023-04-15T08:06:24;3.20;;;1.60;;
38248;SDS011;24045;51.138;17.126;2023-04-15T08:21:28;2.50;;;1.50;;
38248;SDS011;24045;51.138;17.126;2023-04-15T08:36:32;3.30;;;1.60;;
38248;SDS011;24045;51.138;17.126;2023-04-15T08:51:35;1.90;;;0.90;;
38248;SDS011;24045;51.138;17.126;2023-04-15T09:06:38;2.60;;;0.90;;
38248;SDS011;24045;51.138;17.126;2023-04-15T09:21:41;1.20;;;0.80;;
38248;SDS011;24045;51.138;17.126;2023-04-15T09:36:53;0.40;;;0.40;;
38248;SDS011;24045;51.138;17.126;2023-04-15T09:52:01;2.40;;;1.10;;
38248;SDS011;24045;51.138;17.126;2023-04-15T10:07:08;1.50;;;0.70;;
38248;SDS011;24045;51.138;17.126;2023-04-15T10:22:11;1.40;;;0.70;;
38248;SDS011;24045;51.138;17.126;2023-04-15T10:37:22;1.10;;;0.60;;
38248;SDS011;24045;51.138;17.126;2023-04-15T10:52:36;0.90;;;0.50;;
38248;SDS011;24045;51.138;17.126;2023-04-15T11:22:51;1.30;;;0.60;;
38248;SDS011;24045;51.138;17.126;2023-04-15T11:38:15;1.90;;;0.80;;
38248;SDS011;24045;51.138;17.126;2023-04-15T11:53:21;1.80;;;1.10;;
38248;SDS011;24045;51.138;17.126;2023-04-15T12:08:24;2.00;;;0.80;;
38248;SDS011;24045;51.138;17.126;2023-04-15T12:23:27;0.90;;;0.80;;
38248;SDS011;24045;51.138;17.126;2023-04-15T12:38:30;1.20;;;0.80;;
38248;SDS011;24045;51.138;17.126;2023-04-15T12:53:33;1.00;;;0.60;;
38248;SDS011;24045;51.138;17.126;2023-04-15T13:08:36;1.80;;;0.90;;
38248;SDS011;24045;51.138;17.126;2023-04-15T13:23:47;1.10;;;0.80;;
38248;SDS011;24045;51.138;17.126;2023-04-15T13:38:51;1.10;;;0.80;;
38248;SDS011;24045;51.138;17.126;2023-04-15T13:53:59;2.10;;;0.90;;
38248;SDS011;24045;51.138;17.126;2023-04-15T14:09:02;1.80;;;1.20;;
38248;SDS011;24045;51.138;17.126;2023-04-15T14:24:05;2.70;;;1.30;;
38248;SDS011;24045;51.138;17.126;2023-04-15T14:39:08;2.90;;;1.40;;
38248;SDS011;24045;51.138;17.126;2023-04-15T14:54:12;4.40;;;1.90;;
38248;SDS011;24045;51.138;17.126;2023-04-15T15:09:15;5.30;;;2.10;;
38248;SDS011;24045;51.138;17.126;2023-04-15T15:24:18;3.30;;;1.70;;
38248;SDS011;24045;51.138;17.126;2023-04-15T15:39:21;4.90;;;2.20;;
38248;SDS011;24045;51.138;17.126;2023-04-15T15:54:25;4.40;;;1.80;;
38248;SDS011;24045;51.138;17.126;2023-04-15T16:09:27;3.90;;;1.60;;
38248;SDS011;24045;51.138;17.126;2023-04-15T16:24:31;2.90;;;1.60;;
38248;SDS011;24045;51.138;17.126;2023-04-15T16:39:36;3.80;;;2.20;;
38248;SDS011;24045;51.138;17.126;2023-04-15T16:54:39;6.10;;;3.20;;
38248;SDS011;24045;51.138;17.126;2023-04-15T17:09:45;8.20;;;4.10;;
38248;SDS011;24045;51.138;17.126;2023-04-15T17:24:48;10.60;;;7.40;;
38248;SDS011;24045;51.138;17.126;2023-04-15T17:39:56;9.70;;;4.70;;
38248;SDS011;24045;51.138;17.126;2023-04-15T17:54:59;15.00;;;8.20;;
38248;SDS011;24045;51.138;17.126;2023-04-15T18:10:02;16.30;;;10.80;;
38248;SDS011;24045;51.138;17.126;2023-04-15T18:25:05;17.20;;;11.30;;
38248;SDS011;24045;51.138;17.126;2023-04-15T18:40:08;20.40;;;13.80;;
38248;SDS011;24045;51.138;17.126;2023-04-15T18:55:12;19.30;;;14.00;;
38248;SDS011;24045;51.138;17.126;2023-04-15T19:10:14;21.10;;;14.90;;
38248;SDS011;24045;51.138;17.126;2023-04-15T19:25:17;21.10;;;14.90;;
38248;SDS011;24045;51.138;17.126;2023-04-15T20:10:25;28.10;;;19.50;;
38248;SDS011;24045;51.138;17.126;2023-04-15T20:25:28;25.70;;;16.40;;
38248;SDS011;24045;51.138;17.126;2023-04-15T20:40:31;23.10;;;16.00;;
38248;SDS011;24045;51.138;17.126;2023-04-15T20:55:35;24.50;;;16.40;;
38248;SDS011;24045;51.138;17.126;2023-04-15T21:10:38;23.10;;;15.40;;
38248;SDS011;24045;51.138;17.126;2023-04-15T21:25:41;25.00;;;15.60;;
38248;SDS011;24045;51.138;17.126;2023-04-15T22:10:49;25.80;;;15.90;;
38248;SDS011;24045;51.138;17.126;2023-04-15T23:11:00;24.70;;;16.00;;
38248;SDS011;24045;51.138;17.126;2023-04-15T23:26:02;21.80;;;15.60;;
38248;SDS011;24045;51.138;17.126;2023-04-15T23:41:05;24.10;;;18.20;;
38248;SDS011;24045;51.138;17.126;2023-04-15T23:56:08;30.00;;;21.40;;
